createdAt,value
2019-05-09T00:00:14.967Z,96195.80
2019-05-09T00:05:18.345Z,96189.03
2019-05-09T00:10:38.058Z,96193.30
2019-05-09T00:15:27.087Z,96187.12
2019-05-09T00:20:35.111Z,96184.99
2019-05-09T00:25:38.612Z,96194.50
2019-05-09T00:30:55.525Z,96203.39
2019-05-09T00:35:58.930Z,96198.62
2019-05-09T00:41:03.869Z,96194.12
2019-05-09T00:46:10.051Z,96194.95
2019-05-09T00:51:14.096Z,96188.53
2019-05-09T00:56:17.679Z,96189.95
2019-05-09T01:01:21.061Z,96201.00
2019-05-09T01:06:24.446Z,96204.22
2019-05-09T01:11:27.837Z,96208.97
2019-05-09T01:16:33.499Z,96200.52
2019-05-09T01:21:36.534Z,96199.81
2019-05-09T01:26:39.959Z,96207.31
2019-05-09T01:31:43.724Z,96222.88
2019-05-09T01:37:05.116Z,96209.34
2019-05-09T01:42:08.657Z,96219.11
2019-05-09T01:47:13.722Z,96208.76
2019-05-09T01:52:17.223Z,96218.62
2019-05-09T01:57:20.651Z,96204.24
2019-05-09T02:02:24.059Z,96214.47
2019-05-09T02:07:27.469Z,96216.00
2019-05-09T02:12:30.838Z,96209.96
2019-05-09T02:17:55.806Z,96234.89
2019-05-09T02:22:46.833Z,96223.34
2019-05-09T02:27:50.215Z,96217.90
2019-05-09T02:32:54.755Z,96209.57
2019-05-09T02:37:58.784Z,96205.53
2019-05-09T02:43:02.412Z,96205.52
2019-05-09T02:48:05.819Z,96199.59
2019-05-09T02:53:09.468Z,96207.05
2019-05-09T02:58:14.503Z,96210.35
2019-05-09T03:03:23.565Z,96210.22
2019-05-09T03:08:29.523Z,96203.70
2019-05-09T03:13:32.060Z,96190.14
2019-05-09T03:18:35.494Z,96205.56
2019-05-09T03:23:39.189Z,96203.50
2019-05-09T03:28:59.435Z,96204.57
2019-05-09T03:34:02.905Z,96204.43
2019-05-09T03:39:09.108Z,96199.80
2019-05-09T03:44:12.489Z,96216.12
2019-05-09T03:49:18.069Z,96224.88
2019-05-09T03:54:21.527Z,96214.00
2019-05-09T03:59:24.919Z,96219.41
2019-05-09T04:04:28.394Z,96209.05
2019-05-09T04:09:31.774Z,96208.66
2019-05-09T04:14:37.539Z,96196.23
2019-05-09T04:19:41.079Z,96218.25
2019-05-09T04:24:44.732Z,96218.25
2019-05-09T04:29:48.488Z,96206.33
2019-05-09T04:34:51.835Z,96204.08
2019-05-09T04:39:59.499Z,96200.99
2019-05-09T04:45:03.546Z,96217.30
2019-05-09T04:50:07.617Z,96218.89
2019-05-09T04:55:11.862Z,96218.30
2019-05-09T05:00:18.414Z,96214.20
2019-05-09T05:05:21.874Z,96236.74
2019-05-09T05:10:27.286Z,96243.98
2019-05-09T05:15:30.342Z,96243.42
2019-05-09T05:20:33.988Z,96243.95
2019-05-09T05:25:38.281Z,96241.23
2019-05-09T05:30:41.739Z,96248.48
2019-05-09T05:35:48.025Z,96246.70
2019-05-09T05:40:51.455Z,96249.80
2019-05-09T05:45:58.461Z,96241.15
2019-05-09T05:51:01.711Z,96245.69
2019-05-09T05:56:05.481Z,96242.20
2019-05-09T06:01:08.859Z,96233.27
2019-05-09T06:06:12.241Z,96233.98
2019-05-09T06:11:17.711Z,96230.89
2019-05-09T06:16:22.414Z,96236.59
2019-05-09T06:21:28.405Z,96240.58
2019-05-09T06:26:37.347Z,96244.42
2019-05-09T06:31:40.863Z,96248.09
2019-05-09T06:36:44.242Z,96241.09
2019-05-09T06:41:48.476Z,96250.39
2019-05-09T06:46:53.661Z,96243.14
2019-05-09T06:51:58.034Z,96248.73
2019-05-09T06:57:01.647Z,96246.49
2019-05-09T07:02:08.211Z,96251.49
2019-05-09T07:07:19.222Z,96248.88
2019-05-09T07:12:22.609Z,96240.34
2019-05-09T07:17:31.671Z,96241.52
2019-05-09T07:22:35.483Z,96235.83
2019-05-09T07:27:40.501Z,96235.80
2019-05-09T07:32:48.752Z,96233.47
2019-05-09T07:37:52.328Z,96236.25
2019-05-09T07:42:58.190Z,96237.41
2019-05-09T07:48:00.824Z,96223.88
2019-05-09T07:53:04.199Z,96215.06
2019-05-09T07:58:08.204Z,96210.55
2019-05-09T08:03:13.237Z,96202.48
2019-05-09T08:08:18.539Z,96197.68
2019-05-09T08:13:22.177Z,96196.11
2019-05-09T08:18:28.020Z,96199.17
2019-05-09T08:23:30.944Z,96199.17
2019-05-09T08:28:34.318Z,96208.31
2019-05-09T08:33:38.273Z,96207.80
2019-05-09T08:38:42.109Z,96203.17
2019-05-09T08:43:48.191Z,96200.58
2019-05-09T08:48:50.812Z,96210.03
2019-05-09T08:53:54.286Z,96207.91
2019-05-09T08:59:01.782Z,96213.69
2019-05-09T09:04:02.772Z,96219.42
2019-05-09T09:09:08.086Z,96218.47
2019-05-09T09:14:11.642Z,96216.82
2019-05-09T09:19:15.047Z,96211.02
2019-05-09T09:24:18.383Z,96215.69
2019-05-09T09:29:21.760Z,96215.77
2019-05-09T09:34:27.103Z,96206.05
2019-05-09T09:39:31.356Z,96207.32
2019-05-09T09:44:34.960Z,96199.89
2019-05-09T09:49:38.912Z,96194.64
2019-05-09T09:54:42.294Z,96197.48
2019-05-09T09:59:48.359Z,96198.55
2019-05-09T10:04:52.083Z,96199.73
2019-05-09T10:09:55.437Z,96182.26
2019-05-09T10:15:08.341Z,96175.71
2019-05-09T10:20:13.252Z,96170.27
2019-05-09T10:25:18.256Z,96157.33
2019-05-09T10:30:28.868Z,96152.96
2019-05-09T10:35:32.227Z,96159.67
2019-05-09T10:40:35.578Z,96154.95
2019-05-09T10:45:43.553Z,96152.41
2019-05-09T10:50:53.876Z,96147.27
2019-05-09T10:55:51.977Z,96144.02
2019-05-09T11:00:55.307Z,96145.29
2019-05-09T11:05:58.704Z,96145.37
2019-05-09T11:11:05.706Z,96141.70
2019-05-09T11:16:07.712Z,96124.96
2019-05-09T11:21:11.317Z,96124.91
2019-05-09T11:26:14.731Z,96110.54
2019-05-09T11:31:18.822Z,96115.84
2019-05-09T11:36:22.420Z,96111.62
2019-05-09T11:41:29.075Z,96120.69
2019-05-09T11:46:30.844Z,96126.81
2019-05-09T11:51:34.186Z,96122.19
2019-05-09T11:56:38.373Z,96116.30
2019-05-09T12:01:42.199Z,96111.41
2019-05-09T12:06:45.670Z,96114.42
2019-05-09T12:11:49.014Z,96116.14
2019-05-09T12:16:52.452Z,96120.89
2019-05-09T12:21:58.118Z,96134.31
2019-05-09T12:27:03.121Z,96141.05
2019-05-09T12:32:08.581Z,96148.12
2019-05-09T12:37:11.197Z,96157.07
2019-05-09T12:42:14.630Z,96153.28
2019-05-09T12:47:19.027Z,96151.27
2019-05-09T12:52:22.515Z,96164.03
2019-05-09T12:57:28.662Z,96188.50
2019-05-09T13:02:30.931Z,96196.21
2019-05-09T13:07:34.283Z,96194.95
2019-05-09T13:12:38.797Z,96197.67
2019-05-09T13:17:48.051Z,96180.36
2019-05-09T13:22:51.796Z,96186.06
2019-05-09T13:27:55.187Z,96181.22
2019-05-09T13:32:58.536Z,96174.16
2019-05-09T13:38:01.905Z,96168.94
2019-05-09T13:43:05.337Z,96163.06
2019-05-09T13:48:27.079Z,96157.42
2019-05-09T13:53:19.198Z,96156.17
2019-05-09T13:58:22.125Z,96147.48
2019-05-09T14:03:28.139Z,96147.81
2019-05-09T14:08:31.574Z,96142.70
2019-05-09T14:13:34.942Z,96149.91
2019-05-09T14:18:38.609Z,96144.25
2019-05-09T14:23:51.135Z,96136.06
2019-05-09T14:28:49.053Z,96122.78
2019-05-09T14:33:52.222Z,96124.11
2019-05-09T14:38:57.934Z,96122.50
2019-05-09T14:44:00.777Z,96117.97
2019-05-09T14:49:04.105Z,96096.40
2019-05-09T14:54:08.381Z,96098.86
2019-05-09T14:59:11.850Z,96099.36
2019-05-09T15:04:15.284Z,96099.20
2019-05-09T15:09:19.032Z,96108.84
2019-05-09T15:14:22.564Z,96108.03
2019-05-09T15:19:28.576Z,96101.92
2019-05-09T15:24:30.974Z,96103.56
2019-05-09T15:29:34.383Z,96108.74
2019-05-09T15:34:38.291Z,96103.86
2019-05-09T15:39:41.743Z,96117.51
2019-05-09T15:44:47.521Z,96213.69
2019-05-09T15:49:50.118Z,96208.92
2019-05-09T15:54:53.511Z,96212.75
2019-05-09T15:59:58.839Z,96222.83
2019-05-09T16:05:02.088Z,96221.32
2019-05-09T16:10:08.514Z,96212.31
2019-05-09T16:15:12.040Z,96205.55
2019-05-09T16:20:37.417Z,96216.63
2019-05-09T16:25:38.786Z,96207.45
2019-05-09T16:30:42.198Z,96218.27
2019-05-09T16:35:45.557Z,96218.91
2019-05-09T16:40:48.927Z,96214.06
2019-05-09T16:45:52.966Z,96199.89
2019-05-09T16:51:03.329Z,96211.58
2019-05-09T16:56:02.107Z,96205.45
2019-05-09T17:01:08.147Z,96193.44
2019-05-09T17:06:10.765Z,96195.47
2019-05-09T17:11:14.128Z,96190.94
2019-05-09T17:16:17.908Z,96199.41
2019-05-09T17:21:34.776Z,96206.65
2019-05-09T17:26:38.306Z,96200.81
2019-05-09T17:31:41.715Z,96201.86
2019-05-09T17:36:45.036Z,96206.45
2019-05-09T17:41:48.384Z,96205.73
2019-05-09T17:46:51.793Z,96205.30
2019-05-09T17:51:55.414Z,96206.11
2019-05-09T17:56:58.829Z,96214.56
2019-05-09T18:02:02.476Z,96218.65
2019-05-09T18:07:08.531Z,96222.80
2019-05-09T18:12:11.118Z,96230.30
2019-05-09T18:17:14.485Z,96230.20
2019-05-09T18:22:18.622Z,96229.59
2019-05-09T18:27:22.195Z,96228.77
2019-05-09T18:32:43.490Z,96239.84
2019-05-09T18:37:48.100Z,96236.59
2019-05-09T18:42:51.847Z,96245.52
2019-05-09T18:47:57.840Z,96248.80
2019-05-09T18:53:00.437Z,96253.78
2019-05-09T18:58:03.856Z,96257.11
2019-05-09T19:03:07.190Z,96272.32
2019-05-09T19:08:10.613Z,96279.23
2019-05-09T19:13:14.034Z,96278.27
2019-05-09T19:18:30.981Z,96281.85
2019-05-09T19:23:34.333Z,96286.04
2019-05-09T19:28:37.778Z,96291.88
2019-05-09T19:33:41.102Z,96295.20
2019-05-09T19:38:44.449Z,96309.63
2019-05-09T19:43:47.785Z,96308.05
2019-05-09T19:48:51.134Z,96319.37
2019-05-09T19:53:54.480Z,96326.03
2019-05-09T19:58:58.013Z,96323.98
2019-05-09T20:04:01.379Z,96341.37
2019-05-09T20:09:08.406Z,96338.27
2019-05-09T20:14:16.414Z,96342.81
2019-05-09T20:19:19.823Z,96343.52
2019-05-09T20:24:23.286Z,96350.67
2019-05-09T20:29:29.786Z,96357.56
2019-05-09T20:34:31.831Z,96368.86
2019-05-09T20:39:35.381Z,96374.32
2019-05-09T20:44:38.914Z,96378.73
2019-05-09T20:49:42.504Z,96387.87
2019-05-09T20:54:45.980Z,96400.48
2019-05-09T20:59:49.557Z,96402.38
2019-05-09T21:04:53.091Z,96404.03
2019-05-09T21:10:04.631Z,96414.81
2019-05-09T21:15:08.720Z,96413.30
2019-05-09T21:20:12.263Z,96424.70
2019-05-09T21:25:15.974Z,96431.96
2019-05-09T21:30:20.562Z,96430.78
2019-05-09T21:35:23.896Z,96438.29
2019-05-09T21:40:27.358Z,96439.85
2019-05-09T21:45:30.687Z,96436.14
2019-05-09T21:50:34.101Z,96443.29
2019-05-09T21:55:37.524Z,96440.20
2019-05-09T22:00:41.560Z,96452.80
2019-05-09T22:05:45.019Z,96453.85
2019-05-09T22:10:48.439Z,96462.23
2019-05-09T22:15:51.949Z,96463.41
2019-05-09T22:20:55.355Z,96476.61
2019-05-09T22:25:58.891Z,96479.70
2019-05-09T22:31:02.225Z,96482.59
2019-05-09T22:36:05.570Z,96490.36
2019-05-09T22:41:08.927Z,96499.23
2019-05-09T22:46:12.340Z,96500.23
2019-05-09T22:51:15.755Z,96500.60
2019-05-09T22:56:19.126Z,96502.25
2019-05-09T23:01:22.567Z,96500.47
2019-05-09T23:06:25.907Z,96508.31
2019-05-09T23:11:29.307Z,96514.50
2019-05-09T23:16:34.464Z,96516.80
2019-05-09T23:21:37.932Z,96527.60
2019-05-09T23:26:41.348Z,96528.80
2019-05-09T23:31:48.834Z,96526.78
2019-05-09T23:36:52.196Z,96524.16
2019-05-09T23:41:55.543Z,96530.47
2019-05-09T23:46:59.065Z,96534.97
2019-05-09T23:52:02.459Z,96536.42
2019-05-09T23:57:24.606Z,96534.25
